Time;durP1;ratioP1;P1;durP2;ratioP2;P2;SDS_P1;SDS_P2;PMS_P1;PMS_P2;Temp;Humidity;BMP_temperature;BMP_pressure;BME280_temperature;BME280_humidity;BME280_pressure;Samples;Min_cycle;Max_cycle;Signal;HPM_P1;HPM_P2
2023/01/28 00:00:17;;;;;;;28.52;4.63;;;;;;;;;;5032836;28;20029;-32
2023/01/28 00:02:44;;;;;;;26.55;4.82;;;;;;;;;;5032715;28;20033;-32
2023/01/28 00:05:11;;;;;;;29.65;5.15;;;;;;;;;;5032634;28;20026;-32
2023/01/28 00:07:38;;;;;;;27.50;4.72;;;;;;;;;;5032776;28;20029;-32
2023/01/28 00:10:06;;;;;;;35.72;6.15;;;;;;;;;;5032699;28;20033;-32
2023/01/28 00:12:32;;;;;;;31.83;5.75;;;;;;;;;;5032722;28;20787;-32
2023/01/28 00:14:59;;;;;;;38.38;6.05;;;;;;;;;;5032604;28;20034;-32
2023/01/28 00:17:26;;;;;;;37.95;5.90;;;;;;;;;;5032645;28;20060;-32
2023/01/28 00:19:53;;;;;;;33.72;6.03;;;;;;;;;;5032577;28;20037;-32
2023/01/28 00:22:21;;;;;;;37.70;5.95;;;;;;;;;;5032557;28;20031;-32
2023/01/28 00:24:48;;;;;;;45.00;6.53;;;;;;;;;;5032351;28;20030;-32
2023/01/28 00:27:15;;;;;;;43.58;7.22;;;;;;;;;;5032545;28;20549;-32
2023/01/28 00:29:42;;;;;;;36.75;6.07;;;;;;;;;;5032465;28;20079;-32
2023/01/28 00:32:09;;;;;;;29.83;5.82;;;;;;;;;;5032517;28;20038;-32
2023/01/28 00:34:36;;;;;;;37.45;6.30;;;;;;;;;;5032290;28;20033;-32
2023/01/28 00:37:02;;;;;;;37.25;6.63;;;;;;;;;;5032278;28;20114;-32
2023/01/28 00:39:29;;;;;;;36.88;7.30;;;;;;;;;;5032469;28;20525;-32
2023/01/28 00:41:56;;;;;;;30.63;6.60;;;;;;;;;;5032454;28;20063;-32
2023/01/28 00:44:23;;;;;;;39.03;6.05;;;;;;;;;;5032310;28;20549;-32
2023/01/28 00:46:50;;;;;;;29.63;6.15;;;;;;;;;;5032398;28;20026;-32
2023/01/28 00:49:17;;;;;;;35.72;6.35;;;;;;;;;;5032304;28;20033;-32
2023/01/28 00:51:44;;;;;;;31.90;6.25;;;;;;;;;;5032259;28;20026;-32
2023/01/28 00:54:12;;;;;;;28.60;5.63;;;;;;;;;;5032234;28;20036;-32
2023/01/28 00:56:39;;;;;;;36.03;6.63;;;;;;;;;;5032207;28;20030;-32
2023/01/28 00:59:06;;;;;;;27.63;6.22;;;;;;;;;;5036021;28;20026;-32
2023/01/28 01:01:33;;;;;;;32.53;6.35;;;;;;;;;;5036059;28;20116;-32
2023/01/28 01:04:03;;;;;;;25.52;6.18;;;;;;;;;;5035847;28;20134;-33
2023/01/28 01:06:34;;;;;;;32.45;6.90;;;;;;;;;;5035959;28;20060;-32
2023/01/28 01:09:02;;;;;;;33.88;6.20;;;;;;;;;;5035965;28;20022;-32
2023/01/28 01:11:29;;;;;;;28.98;5.80;;;;;;;;;;5035867;28;20033;-32
2023/01/28 01:13:57;;;;;;;34.67;6.55;;;;;;;;;;5035857;28;20037;-32
2023/01/28 01:16:25;;;;;;;25.15;6.43;;;;;;;;;;5035854;28;20479;-32
2023/01/28 01:18:53;;;;;;;30.23;6.68;;;;;;;;;;5035808;28;20029;-32
2023/01/28 01:21:21;;;;;;;28.65;6.15;;;;;;;;;;5035816;28;20121;-32
2023/01/28 01:23:48;;;;;;;31.95;6.55;;;;;;;;;;5035694;28;20407;-32
2023/01/28 01:26:15;;;;;;;32.42;7.30;;;;;;;;;;5035537;28;20487;-32
2023/01/28 01:28:43;;;;;;;29.58;7.00;;;;;;;;;;5035621;28;20026;-32
2023/01/28 01:31:14;;;;;;;30.40;6.93;;;;;;;;;;5035392;28;20120;-32
2023/01/28 01:33:41;;;;;;;28.25;6.97;;;;;;;;;;5035507;28;20037;-32
2023/01/28 01:36:09;;;;;;;25.08;6.40;;;;;;;;;;5035147;28;20041;-32
2023/01/28 01:38:36;;;;;;;30.55;6.57;;;;;;;;;;5035460;28;20498;-32
2023/01/28 01:41:04;;;;;;;30.23;6.78;;;;;;;;;;5035366;28;20045;-32
2023/01/28 01:43:50;;;;;;;24.13;6.68;;;;;;;;;;5035570;28;20022;-32
2023/01/28 01:46:20;;;;;;;33.13;7.20;;;;;;;;;;5035109;28;20392;-32
2023/01/28 01:48:47;;;;;;;28.60;6.50;;;;;;;;;;5035173;28;20060;-32
2023/01/28 01:51:24;;;;;;;29.55;6.30;;;;;;;;;;5035153;28;20029;-32
2023/01/28 01:53:54;;;;;;;26.90;6.50;;;;;;;;;;5035151;28;20032;-32
2023/01/28 01:56:22;;;;;;;28.17;6.90;;;;;;;;;;5035080;28;20026;-32
2023/01/28 01:58:51;;;;;;;25.48;6.47;;;;;;;;;;5034990;28;20041;-32
2023/01/28 02:01:21;;;;;;;25.25;6.60;;;;;;;;;;5035283;28;20459;-32
2023/01/28 02:03:53;;;;;;;27.23;7.25;;;;;;;;;;5034911;28;20108;-32
2023/01/28 02:06:20;;;;;;;23.95;6.05;;;;;;;;;;5034978;28;20037;-32
2023/01/28 02:08:47;;;;;;;25.90;6.55;;;;;;;;;;5033680;28;20100;-32
2023/01/28 02:11:14;;;;;;;23.20;6.07;;;;;;;;;;5034692;28;20033;-32
2023/01/28 02:13:44;;;;;;;25.15;6.45;;;;;;;;;;5034711;28;20045;-32
2023/01/28 02:16:12;;;;;;;21.65;5.50;;;;;;;;;;5034700;28;20056;-32
2023/01/28 02:18:39;;;;;;;22.85;6.15;;;;;;;;;;5034682;28;20064;-32
2023/01/28 02:21:12;;;;;;;24.45;6.28;;;;;;;;;;5034563;28;20029;-32
2023/01/28 02:23:39;;;;;;;20.75;5.85;;;;;;;;;;5034579;28;20030;-32
2023/01/28 02:26:26;;;;;;;24.63;6.68;;;;;;;;;;5034427;28;20401;-31
2023/01/28 02:29:00;;;;;;;27.80;6.68;;;;;;;;;;5034376;28;20029;-32
2023/01/28 02:31:33;;;;;;;24.70;5.68;;;;;;;;;;5034288;28;20025;-32
2023/01/28 02:34:12;;;;;;;17.33;5.90;;;;;;;;;;5034363;28;20035;-32
2023/01/28 02:36:46;;;;;;;30.83;6.55;;;;;;;;;;5034178;28;20121;-32
2023/01/28 02:39:23;;;;;;;19.33;5.55;;;;;;;;;;5034302;28;20025;-32
2023/01/28 02:41:52;;;;;;;24.95;6.07;;;;;;;;;;5034211;28;20030;-32
2023/01/28 02:44:19;;;;;;;22.42;6.25;;;;;;;;;;5034087;28;20040;-32
2023/01/28 02:49:53;;;;;;;19.20;5.43;;;;;;;;;;4992514;28;20110;-32
2023/01/28 02:53:39;;;;;;;22.00;5.68;;;;;;;;;;5027117;28;20049;-32
2023/01/28 02:55:13;;;;;;;21.20;5.80;;;;;;;;;;5033782;28;20125;-32
2023/01/28 02:57:46;;;;;;;22.20;6.18;;;;;;;;;;5034017;28;20498;-32
2023/01/28 03:00:13;;;;;;;19.77;5.30;;;;;;;;;;5033790;28;20398;-32
2023/01/28 03:02:49;;;;;;;19.75;5.65;;;;;;;;;;5033782;28;20028;-32
2023/01/28 03:05:19;;;;;;;21.20;5.85;;;;;;;;;;5033546;28;20115;-32
2023/01/28 03:07:47;;;;;;;22.92;6.05;;;;;;;;;;5033728;28;20068;-32
2023/01/28 03:10:15;;;;;;;16.17;5.35;;;;;;;;;;5033568;28;20045;-32
2023/01/28 03:38:17;;;;;;;19.10;5.43;;;;;;;;;;5032988;28;20064;-32
2023/01/28 03:40:43;;;;;;;;;;;;;;;;;;5033508;28;20025;-32
2023/01/28 03:43:10;;;;;;;15.27;5.30;;;;;;;;;;5033177;28;19940;-32
2023/01/28 03:45:38;;;;;;;22.33;5.68;;;;;;;;;;5033015;28;20118;-32
2023/01/28 03:48:05;;;;;;;18.65;5.40;;;;;;;;;;5032984;28;20036;-32
2023/01/28 03:50:32;;;;;;;16.73;5.50;;;;;;;;;;5032991;28;20092;-32
2023/01/28 03:53:10;;;;;;;23.88;5.00;;;;;;;;;;5032934;28;20042;-32
2023/01/28 03:55:37;;;;;;;17.30;4.82;;;;;;;;;;5032755;28;20048;-32
2023/01/28 03:58:04;;;;;;;19.98;5.47;;;;;;;;;;5032844;28;20032;-32
2023/01/28 04:00:32;;;;;;;17.85;5.07;;;;;;;;;;5032750;28;20480;-32
2023/01/28 04:02:59;;;;;;;17.10;5.13;;;;;;;;;;5032860;28;20480;-32
2023/01/28 04:05:27;;;;;;;21.63;5.45;;;;;;;;;;5032610;28;20586;-32
2023/01/28 04:07:57;;;;;;;14.98;5.20;;;;;;;;;;5032637;28;20025;-32
2023/01/28 04:10:23;;;;;;;17.52;5.28;;;;;;;;;;5032626;28;20483;-32
2023/01/28 04:12:53;;;;;;;16.80;5.40;;;;;;;;;;5032698;28;20025;-32
2023/01/28 04:15:20;;;;;;;16.50;4.95;;;;;;;;;;5032471;28;20034;-32
2023/01/28 04:17:47;;;;;;;16.58;5.57;;;;;;;;;;5032631;28;20022;-32
2023/01/28 04:20:14;;;;;;;15.77;5.10;;;;;;;;;;5032621;28;20496;-32
2023/01/28 04:22:42;;;;;;;15.23;5.07;;;;;;;;;;5032632;28;20075;-32
2023/01/28 04:25:09;;;;;;;22.13;5.53;;;;;;;;;;5032427;28;20030;-32
2023/01/28 04:27:36;;;;;;;15.88;5.10;;;;;;;;;;5032440;28;20468;-32
2023/01/28 04:30:03;;;;;;;14.32;5.15;;;;;;;;;;5032343;28;20049;-32
2023/01/28 04:32:30;;;;;;;13.20;5.13;;;;;;;;;;5033930;28;20029;-32
2023/01/28 04:34:57;;;;;;;14.20;4.60;;;;;;;;;;5036567;28;20029;-32
2023/01/28 04:37:24;;;;;;;15.73;5.15;;;;;;;;;;5036392;28;20056;-32
2023/01/28 04:39:51;;;;;;;14.82;4.88;;;;;;;;;;5036429;28;20032;-32
2023/01/28 04:42:18;;;;;;;14.55;4.85;;;;;;;;;;5036494;28;20033;-32
2023/01/28 04:44:45;;;;;;;12.82;5.05;;;;;;;;;;5036331;28;20476;-32
2023/01/28 04:47:12;;;;;;;17.23;4.68;;;;;;;;;;5036435;28;20026;-32
2023/01/28 04:49:39;;;;;;;13.23;4.97;;;;;;;;;;5036348;28;20037;-32
2023/01/28 04:52:06;;;;;;;13.98;4.28;;;;;;;;;;5036295;28;20021;-32
2023/01/28 04:54:33;;;;;;;14.05;4.70;;;;;;;;;;5036263;28;20021;-32
2023/01/28 04:57:00;;;;;;;15.88;5.10;;;;;;;;;;5036340;28;20395;-32
2023/01/28 04:59:26;;;;;;;14.23;4.80;;;;;;;;;;5036309;28;20018;-32
2023/01/28 05:01:53;;;;;;;13.30;4.43;;;;;;;;;;5036278;28;20117;-32
2023/01/28 05:04:20;;;;;;;12.20;4.20;;;;;;;;;;5035830;28;20034;-32
2023/01/28 05:06:47;;;;;;;14.60;5.30;;;;;;;;;;5036129;28;20021;-32
2023/01/28 05:09:14;;;;;;;10.73;4.15;;;;;;;;;;5035973;28;20029;-32
2023/01/28 05:11:41;;;;;;;12.95;4.47;;;;;;;;;;5035808;28;20045;-32
2023/01/28 05:14:08;;;;;;;12.95;4.90;;;;;;;;;;5036185;28;20167;-32
2023/01/28 05:16:35;;;;;;;11.55;4.25;;;;;;;;;;5035921;28;20025;-32
2023/01/28 05:19:02;;;;;;;12.98;4.90;;;;;;;;;;5035862;28;20104;-32
2023/01/28 05:21:30;;;;;;;11.10;4.80;;;;;;;;;;5035691;28;20057;-32
2023/01/28 05:23:56;;;;;;;13.70;4.13;;;;;;;;;;5035738;28;20021;-32
2023/01/28 05:26:23;;;;;;;11.63;4.50;;;;;;;;;;5035756;28;20029;-32
2023/01/28 05:28:50;;;;;;;16.02;3.85;;;;;;;;;;5035557;28;20104;-32
2023/01/28 05:31:17;;;;;;;11.70;4.50;;;;;;;;;;5035572;28;20037;-32
2023/01/28 05:33:44;;;;;;;9.98;4.15;;;;;;;;;;5035585;28;20033;-32
2023/01/28 05:36:11;;;;;;;11.43;3.72;;;;;;;;;;5035414;28;20033;-32
2023/01/28 05:38:38;;;;;;;14.07;4.63;;;;;;;;;;5035525;28;20034;-32
2023/01/28 05:41:05;;;;;;;10.80;3.95;;;;;;;;;;5035336;28;20037;-32
2023/01/28 05:43:32;;;;;;;10.98;4.20;;;;;;;;;;5035391;28;20077;-32
2023/01/28 05:45:59;;;;;;;9.25;4.10;;;;;;;;;;5035727;28;20017;-32
2023/01/28 05:48:26;;;;;;;11.63;4.47;;;;;;;;;;5035374;28;20494;-32
2023/01/28 05:50:53;;;;;;;13.38;4.72;;;;;;;;;;5035216;28;20033;-32
2023/01/28 05:53:20;;;;;;;11.38;4.47;;;;;;;;;;5035191;28;20561;-32
2023/01/28 05:55:52;;;;;;;10.75;4.32;;;;;;;;;;5035052;28;20028;-32
2023/01/28 05:58:20;;;;;;;13.68;4.30;;;;;;;;;;5035109;28;20041;-32
2023/01/28 06:00:47;;;;;;;10.82;3.92;;;;;;;;;;5034886;28;20026;-34
2023/01/28 06:03:14;;;;;;;10.00;4.10;;;;;;;;;;5011501;28;20072;-32
2023/01/28 06:05:40;;;;;;;12.00;4.22;;;;;;;;;;5015096;28;20056;-32
2023/01/28 06:08:07;;;;;;;12.75;4.15;;;;;;;;;;5015256;28;20026;-32
2023/01/28 06:10:34;;;;;;;15.07;4.57;;;;;;;;;;5014999;28;20125;-32
2023/01/28 06:13:01;;;;;;;11.32;4.00;;;;;;;;;;5015137;28;20033;-32
2023/01/28 06:15:28;;;;;;;12.20;3.88;;;;;;;;;;5015005;28;20045;-32
2023/01/28 06:17:55;;;;;;;10.70;4.07;;;;;;;;;;5015131;28;20030;-32
2023/01/28 06:20:22;;;;;;;8.23;3.72;;;;;;;;;;5014955;28;20104;-32
2023/01/28 06:22:52;;;;;;;11.13;4.22;;;;;;;;;;5014780;28;20022;-32
2023/01/28 06:25:20;;;;;;;8.75;3.60;;;;;;;;;;5014633;28;20073;-32
2023/01/28 06:27:46;;;;;;;10.50;3.78;;;;;;;;;;5014759;28;20025;-32
2023/01/28 06:30:13;;;;;;;10.55;3.80;;;;;;;;;;5014600;28;20043;-32
2023/01/28 06:32:40;;;;;;;8.95;3.33;;;;;;;;;;5014793;28;20073;-32
2023/01/28 06:35:08;;;;;;;10.65;3.78;;;;;;;;;;5014550;28;20026;-32
2023/01/28 06:37:35;;;;;;;7.72;3.65;;;;;;;;;;5014355;28;20421;-32
2023/01/28 06:40:04;;;;;;;11.95;3.67;;;;;;;;;;5160079;23;20043;-29
2023/01/28 06:42:31;;;;;;;11.55;3.83;;;;;;;;;;5050508;28;20486;-33
2023/01/28 06:44:58;;;;;;;11.18;3.78;;;;;;;;;;5054159;28;20443;-33
2023/01/28 06:47:25;;;;;;;10.77;4.40;;;;;;;;;;5054185;28;20021;-31
2023/01/28 06:49:51;;;;;;;8.43;3.58;;;;;;;;;;5053968;28;20075;-33
2023/01/28 06:52:18;;;;;;;9.85;3.58;;;;;;;;;;5054008;28;20025;-32
2023/01/28 06:54:45;;;;;;;8.32;3.55;;;;;;;;;;5053438;28;20021;-32
2023/01/28 06:57:12;;;;;;;6.97;3.42;;;;;;;;;;5053934;28;20017;-32
2023/01/28 06:59:39;;;;;;;10.98;3.72;;;;;;;;;;5053929;28;20021;-32
2023/01/28 07:02:06;;;;;;;8.93;3.90;;;;;;;;;;5053773;28;20044;-32
2023/01/28 07:04:33;;;;;;;10.18;3.45;;;;;;;;;;5053807;28;20025;-32
2023/01/28 07:07:00;;;;;;;8.77;3.80;;;;;;;;;;5053755;28;20025;-32
2023/01/28 07:09:27;;;;;;;10.32;3.53;;;;;;;;;;5053719;28;20024;-32
2023/01/28 07:11:54;;;;;;;10.55;3.58;;;;;;;;;;5053486;28;20052;-33
2023/01/28 07:14:21;;;;;;;11.63;3.90;;;;;;;;;;5053588;28;20021;-32
2023/01/28 07:16:48;;;;;;;7.28;3.15;;;;;;;;;;5053540;28;20029;-32
2023/01/28 07:19:15;;;;;;;8.85;3.55;;;;;;;;;;5053563;28;20032;-32
2023/01/28 07:21:42;;;;;;;9.70;3.30;;;;;;;;;;5053377;28;20021;-31
2023/01/28 07:24:09;;;;;;;9.32;3.53;;;;;;;;;;5053465;28;20559;-32
2023/01/28 07:26:36;;;;;;;10.18;3.80;;;;;;;;;;5053376;28;20104;-33
2023/01/28 07:29:03;;;;;;;11.60;3.22;;;;;;;;;;5053350;28;20025;-32
2023/01/28 07:31:30;;;;;;;10.80;3.60;;;;;;;;;;5052935;28;20081;-32
2023/01/28 07:33:57;;;;;;;9.20;3.10;;;;;;;;;;5053264;28;20021;-32
2023/01/28 07:36:24;;;;;;;9.65;3.88;;;;;;;;;;5053081;28;20025;-33
2023/01/28 07:38:51;;;;;;;12.85;3.83;;;;;;;;;;5053135;28;20509;-32
2023/01/28 07:41:17;;;;;;;11.15;3.85;;;;;;;;;;5052860;28;20041;-33
2023/01/28 07:43:44;;;;;;;8.82;3.47;;;;;;;;;;5053129;28;20419;-32
2023/01/28 07:46:11;;;;;;;8.55;3.42;;;;;;;;;;5053042;28;20021;-31
2023/01/28 07:48:38;;;;;;;8.88;3.10;;;;;;;;;;5053030;28;20081;-32
2023/01/28 07:51:05;;;;;;;8.68;3.13;;;;;;;;;;5052740;28;20391;-31
2023/01/28 07:53:33;;;;;;;9.65;3.42;;;;;;;;;;5052914;28;20021;-33
2023/01/28 07:56:00;;;;;;;6.45;3.25;;;;;;;;;;5052880;28;20028;-32
2023/01/28 07:58:27;;;;;;;9.45;3.88;;;;;;;;;;5052842;28;20078;-32
2023/01/28 08:00:58;;;;;;;11.60;3.33;;;;;;;;;;5052695;28;20112;-32
2023/01/28 08:03:25;;;;;;;8.85;3.63;;;;;;;;;;5052719;28;20017;-33
2023/01/28 08:05:54;;;;;;;8.65;3.30;;;;;;;;;;5052569;28;20049;-32
2023/01/28 08:08:21;;;;;;;11.35;3.50;;;;;;;;;;5051827;28;20546;-32
2023/01/28 08:10:48;;;;;;;7.88;2.90;;;;;;;;;;5052492;28;20036;-32
2023/01/28 08:13:16;;;;;;;10.02;3.38;;;;;;;;;;5052672;28;20025;-32
2023/01/28 08:15:43;;;;;;;9.43;3.08;;;;;;;;;;5052449;28;20027;-32
2023/01/28 08:18:13;;;;;;;11.38;3.55;;;;;;;;;;5052648;28;20071;-32
2023/01/28 08:20:43;;;;;;;12.15;3.40;;;;;;;;;;5052460;28;20036;-32
2023/01/28 08:23:14;;;;;;;11.00;3.65;;;;;;;;;;5052733;28;20029;-32
2023/01/28 08:25:41;;;;;;;8.13;2.95;;;;;;;;;;5052568;28;20024;-32
2023/01/28 08:28:08;;;;;;;8.32;2.95;;;;;;;;;;5052513;28;20056;-32
2023/01/28 08:30:37;;;;;;;7.18;3.15;;;;;;;;;;5052244;28;20029;-32
2023/01/28 08:33:05;;;;;;;7.68;2.97;;;;;;;;;;5052348;28;20017;-32
2023/01/28 08:35:33;;;;;;;7.93;3.28;;;;;;;;;;5052499;28;20517;-32
2023/01/28 08:38:00;;;;;;;6.63;3.00;;;;;;;;;;5052358;28;20018;-32
2023/01/28 08:40:27;;;;;;;7.53;3.67;;;;;;;;;;5052212;28;20045;-32
2023/01/28 08:42:55;;;;;;;6.57;2.95;;;;;;;;;;5052252;28;20021;-32
2023/01/28 08:45:24;;;;;;;6.93;3.03;;;;;;;;;;5052313;28;20494;-32
2023/01/28 08:47:55;;;;;;;8.13;3.45;;;;;;;;;;5052199;28;20026;-32
2023/01/28 08:50:24;;;;;;;7.38;3.13;;;;;;;;;;5052175;28;20575;-32
2023/01/28 08:53:01;;;;;;;8.60;3.38;;;;;;;;;;5052160;28;20479;-32
2023/01/28 08:55:29;;;;;;;6.55;3.35;;;;;;;;;;5052311;28;20486;-32
2023/01/28 08:57:56;;;;;;;7.30;3.00;;;;;;;;;;5052260;28;20109;-32
2023/01/28 09:00:23;;;;;;;6.95;2.83;;;;;;;;;;5052173;28;20491;-32
2023/01/28 09:02:53;;;;;;;6.47;2.75;;;;;;;;;;5052170;28;20013;-32
2023/01/28 09:05:20;;;;;;;6.88;2.70;;;;;;;;;;5052153;28;20100;-32
2023/01/28 09:07:48;;;;;;;10.10;3.60;;;;;;;;;;5052191;28;20054;-32
2023/01/28 09:10:15;;;;;;;8.07;3.05;;;;;;;;;;5051935;28;20108;-32
2023/01/28 09:12:42;;;;;;;4.95;3.08;;;;;;;;;;5052044;28;20154;-32
2023/01/28 09:15:10;;;;;;;8.50;3.00;;;;;;;;;;5052087;28;20025;-32
2023/01/28 09:17:37;;;;;;;6.53;3.15;;;;;;;;;;5052099;28;20028;-32
2023/01/28 09:20:04;;;;;;;6.05;3.10;;;;;;;;;;5055461;28;20033;-32
2023/01/28 09:22:32;;;;;;;6.38;2.88;;;;;;;;;;5055770;28;20017;-32
2023/01/28 09:24:59;;;;;;;6.65;3.10;;;;;;;;;;5055681;28;20100;-32
2023/01/28 09:27:26;;;;;;;8.15;3.30;;;;;;;;;;5055681;28;20510;-32
2023/01/28 09:29:52;;;;;;;5.20;2.42;;;;;;;;;;5055474;28;20021;-32
2023/01/28 09:32:20;;;;;;;8.43;3.15;;;;;;;;;;5055559;28;20143;-32
2023/01/28 09:34:47;;;;;;;6.80;3.00;;;;;;;;;;5055399;28;20441;-32
2023/01/28 09:37:13;;;;;;;5.72;3.10;;;;;;;;;;5055454;28;20409;-32
2023/01/28 09:39:40;;;;;;;6.45;3.03;;;;;;;;;;5055391;28;20017;-32
2023/01/28 09:42:27;;;;;;;7.85;3.28;;;;;;;;;;5055217;28;20049;-32
2023/01/28 09:44:54;;;;;;;8.60;3.00;;;;;;;;;;5034380;28;20457;-32
2023/01/28 09:47:34;;;;;;;9.65;2.90;;;;;;;;;;5055212;28;20088;-32
2023/01/28 09:50:03;;;;;;;9.15;3.00;;;;;;;;;;5054953;28;20029;-32
2023/01/28 09:52:31;;;;;;;7.15;2.72;;;;;;;;;;5055043;28;20051;-32
2023/01/28 09:55:01;;;;;;;5.63;3.08;;;;;;;;;;5055094;28;20475;-32
2023/01/28 09:57:39;;;;;;;8.15;3.15;;;;;;;;;;5055097;28;20029;-32
2023/01/28 10:00:12;;;;;;;6.40;2.88;;;;;;;;;;5055008;28;20022;-32
2023/01/28 10:02:42;;;;;;;5.72;3.05;;;;;;;;;;5054969;28;20096;-33
2023/01/28 10:05:27;;;;;;;6.53;2.67;;;;;;;;;;5054900;28;20032;-32
2023/01/28 10:07:57;;;;;;;6.32;2.90;;;;;;;;;;5054863;28;20052;-32
2023/01/28 10:10:32;;;;;;;4.47;2.50;;;;;;;;;;5055027;28;20143;-32
2023/01/28 10:13:19;;;;;;;5.93;2.60;;;;;;;;;;5054995;28;20124;-32
2023/01/28 10:16:00;;;;;;;6.60;3.00;;;;;;;;;;5054628;28;20163;-33
2023/01/28 10:18:32;;;;;;;4.70;2.55;;;;;;;;;;5054710;28;20056;-32
2023/01/28 10:21:06;;;;;;;8.63;2.92;;;;;;;;;;5054568;28;20031;-32
2023/01/28 10:24:02;;;;;;;6.60;3.28;;;;;;;;;;5054495;28;20025;-33
2023/01/28 10:26:42;;;;;;;6.32;2.75;;;;;;;;;;5045898;28;20120;-33
2023/01/28 10:29:17;;;;;;;7.78;3.42;;;;;;;;;;5054291;28;20028;-32
2023/01/28 10:31:52;;;;;;;6.47;2.80;;;;;;;;;;5053861;28;20040;-33
2023/01/28 10:34:19;;;;;;;8.00;3.05;;;;;;;;;;5054229;28;20113;-32
2023/01/28 10:36:47;;;;;;;6.50;2.67;;;;;;;;;;5054372;28;20025;-33
2023/01/28 10:39:18;;;;;;;6.40;3.05;;;;;;;;;;5054329;28;20074;-32
2023/01/28 10:41:45;;;;;;;6.28;3.28;;;;;;;;;;5054071;28;20083;-32
2023/01/28 10:44:21;;;;;;;5.63;2.75;;;;;;;;;;5054426;28;20386;-32
2023/01/28 10:46:49;;;;;;;5.15;2.47;;;;;;;;;;5054158;28;20051;-32
2023/01/28 10:49:22;;;;;;;4.85;2.80;;;;;;;;;;5054158;28;20028;-32
2023/01/28 10:51:49;;;;;;;5.70;2.92;;;;;;;;;;5054012;28;20025;-32
2023/01/28 10:54:24;;;;;;;6.90;2.70;;;;;;;;;;5054072;28;20029;-32
2023/01/28 10:56:53;;;;;;;7.57;2.70;;;;;;;;;;5053946;28;20063;-32
2023/01/28 10:59:23;;;;;;;4.72;2.63;;;;;;;;;;5053725;28;20108;-32
2023/01/28 11:01:53;;;;;;;7.90;2.67;;;;;;;;;;5053853;28;20052;-32
2023/01/28 11:04:24;;;;;;;4.82;2.60;;;;;;;;;;5053808;28;20031;-32
2023/01/28 11:07:05;;;;;;;7.90;2.35;;;;;;;;;;5053634;28;20063;-32
2023/01/28 11:09:34;;;;;;;6.18;2.80;;;;;;;;;;5053674;28;20021;-32
2023/01/28 11:12:19;;;;;;;5.65;2.90;;;;;;;;;;5053654;28;20064;-32
2023/01/28 11:14:52;;;;;;;6.15;2.67;;;;;;;;;;5053651;28;20056;-32
2023/01/28 11:17:20;;;;;;;6.28;2.60;;;;;;;;;;5053419;28;20445;-32
2023/01/28 11:19:47;;;;;;;3.78;2.15;;;;;;;;;;5053299;28;20044;-32
2023/01/28 11:22:23;;;;;;;5.25;2.60;;;;;;;;;;5053635;28;20037;-32
2023/01/28 11:24:50;;;;;;;4.60;2.60;;;;;;;;;;5053425;28;20495;-33
2023/01/28 11:27:18;;;;;;;4.38;2.33;;;;;;;;;;5053258;28;20457;-32
2023/01/28 11:29:45;;;;;;;5.57;2.25;;;;;;;;;;5053143;28;20025;-32
2023/01/28 11:32:19;;;;;;;5.90;2.30;;;;;;;;;;5053258;28;20032;-32
2023/01/28 11:34:53;;;;;;;6.35;2.45;;;;;;;;;;5053296;28;20028;-32
2023/01/28 11:37:24;;;;;;;4.93;2.60;;;;;;;;;;5053210;28;20063;-32
2023/01/28 11:40:01;;;;;;;5.47;2.83;;;;;;;;;;5052840;28;20028;-32
2023/01/28 11:42:28;;;;;;;6.10;2.47;;;;;;;;;;5035033;28;20033;-32
2023/01/28 11:44:55;;;;;;;4.85;2.50;;;;;;;;;;5053106;28;20057;-33
2023/01/28 11:47:38;;;;;;;4.38;2.40;;;;;;;;;;5053068;28;20025;-32
2023/01/28 11:50:05;;;;;;;4.32;2.55;;;;;;;;;;5052776;28;20025;-33
2023/01/28 11:52:32;;;;;;;5.25;2.70;;;;;;;;;;5052988;28;20048;-33
2023/01/28 11:55:12;;;;;;;5.47;2.45;;;;;;;;;;5052832;28;20024;-32
2023/01/28 11:57:58;;;;;;;5.72;2.30;;;;;;;;;;5052948;28;20033;-32
2023/01/28 12:00:34;;;;;;;5.63;2.45;;;;;;;;;;5031843;28;20048;-33
2023/01/28 12:03:20;;;;;;;4.65;2.42;;;;;;;;;;5052782;28;20029;-32
2023/01/28 12:05:52;;;;;;;5.00;2.55;;;;;;;;;;5052638;28;20033;-33
2023/01/28 12:08:51;;;;;;;5.10;2.15;;;;;;;;;;5052547;28;20415;-32
2023/01/28 12:14:24;;;;;;;4.63;2.05;;;;;;;;;;5052900;28;20396;-32
2023/01/28 12:17:02;;;;;;;6.53;2.60;;;;;;;;;;5052619;28;20031;-32
2023/01/28 12:19:32;;;;;;;6.15;2.55;;;;;;;;;;5052493;28;20386;-33
2023/01/28 12:22:18;;;;;;;5.07;2.35;;;;;;;;;;5052437;28;20048;-32
2023/01/28 12:25:03;;;;;;;4.63;2.47;;;;;;;;;;5052408;28;20044;-32
2023/01/28 12:27:48;;;;;;;5.55;2.70;;;;;;;;;;5052404;28;20174;-32
2023/01/28 12:30:27;;;;;;;9.30;2.55;;;;;;;;;;5052201;28;20029;-32
2023/01/28 12:33:03;;;;;;;4.70;2.40;;;;;;;;;;5052414;28;20098;-32
2023/01/28 12:35:43;;;;;;;4.50;2.47;;;;;;;;;;5052423;28;20025;-32
2023/01/28 12:38:26;;;;;;;7.25;2.30;;;;;;;;;;5052333;28;20028;-32
2023/01/28 12:40:53;;;;;;;7.03;2.25;;;;;;;;;;5052163;28;20037;-32
2023/01/28 12:43:43;;;;;;;5.55;2.22;;;;;;;;;;5052363;28;20025;-32
2023/01/28 12:46:25;;;;;;;4.97;2.00;;;;;;;;;;5052366;28;20029;-32
2023/01/28 12:49:15;;;;;;;7.15;2.53;;;;;;;;;;5052249;28;20025;-32
2023/01/28 12:52:00;;;;;;;6.88;2.13;;;;;;;;;;5033008;28;20090;-32
2023/01/28 12:54:39;;;;;;;5.03;2.15;;;;;;;;;;5055075;28;20043;-32
2023/01/28 12:57:08;;;;;;;5.40;2.05;;;;;;;;;;5056182;28;20031;-32
2023/01/28 12:59:44;;;;;;;7.70;2.20;;;;;;;;;;5055955;28;20033;-32
2023/01/28 13:02:13;;;;;;;7.13;2.05;;;;;;;;;;5056040;28;20043;-33
2023/01/28 13:05:10;;;;;;;5.63;2.33;;;;;;;;;;5056123;28;20562;-32
2023/01/28 13:07:37;;;;;;;5.53;2.05;;;;;;;;;;5047402;28;20565;-32
2023/01/28 13:10:25;;;;;;;6.63;2.05;;;;;;;;;;5055832;28;20482;-32
2023/01/28 13:12:52;;;;;;;5.22;2.60;;;;;;;;;;5055931;28;20485;-32
2023/01/28 13:15:19;;;;;;;4.97;1.98;;;;;;;;;;5055912;28;20043;-33
2023/01/28 13:17:59;;;;;;;8.48;2.42;;;;;;;;;;5055808;28;20104;-32
2023/01/28 13:20:37;;;;;;;4.75;2.15;;;;;;;;;;5055749;28;20107;-33
2023/01/28 13:23:06;;;;;;;4.93;1.95;;;;;;;;;;5055818;28;20033;-32
2023/01/28 13:25:36;;;;;;;4.55;2.20;;;;;;;;;;5055712;28;20021;-32
2023/01/28 13:28:05;;;;;;;4.22;2.03;;;;;;;;;;5055715;28;20394;-32
2023/01/28 13:30:33;;;;;;;7.72;2.80;;;;;;;;;;5055421;28;20368;-32
2023/01/28 13:33:04;;;;;;;7.43;2.13;;;;;;;;;;5055550;28;20036;-32
2023/01/28 13:35:35;;;;;;;7.50;2.20;;;;;;;;;;5055684;28;20394;-32
2023/01/28 13:38:10;;;;;;;6.95;1.90;;;;;;;;;;5055495;28;20021;-32
2023/01/28 13:40:38;;;;;;;7.10;2.38;;;;;;;;;;5055195;28;20068;-32
2023/01/28 13:43:06;;;;;;;7.32;1.83;;;;;;;;;;5055415;28;20025;-32
2023/01/28 13:45:33;;;;;;;6.00;2.17;;;;;;;;;;5055235;28;20086;-32
2023/01/28 13:48:19;;;;;;;4.80;1.92;;;;;;;;;;5055286;28;20083;-32
2023/01/28 13:50:47;;;;;;;5.10;2.00;;;;;;;;;;5055127;28;20037;-33
2023/01/28 13:53:19;;;;;;;6.25;2.42;;;;;;;;;;5055217;28;20402;-32
2023/01/28 13:55:47;;;;;;;8.05;2.17;;;;;;;;;;5055018;28;20108;-33
2023/01/28 13:58:30;;;;;;;4.90;1.67;;;;;;;;;;5055023;28;20056;-32
2023/01/28 14:01:03;;;;;;;7.05;2.17;;;;;;;;;;5054981;28;20037;-32
2023/01/28 14:03:50;;;;;;;7.63;2.20;;;;;;;;;;5055007;28;20048;-33
2023/01/28 14:06:20;;;;;;;5.80;2.05;;;;;;;;;;5032957;28;20048;-33
2023/01/28 14:09:03;;;;;;;7.40;2.38;;;;;;;;;;5054868;28;20028;-33
2023/01/28 14:11:48;;;;;;;4.90;1.75;;;;;;;;;;5054723;28;20375;-33
2023/01/28 14:14:47;;;;;;;6.40;2.10;;;;;;;;;;5054830;28;20027;-33
2023/01/28 14:17:35;;;;;;;5.97;1.98;;;;;;;;;;5032105;28;20048;-33
2023/01/28 14:20:03;;;;;;;6.05;2.08;;;;;;;;;;5054655;28;20498;-32
2023/01/28 14:22:30;;;;;;;6.75;2.08;;;;;;;;;;5037100;28;20482;-33
2023/01/28 14:25:00;;;;;;;5.65;1.83;;;;;;;;;;5054582;28;20166;-33
2023/01/28 14:27:38;;;;;;;10.27;1.95;;;;;;;;;;5054472;28;20032;-33
2023/01/28 14:30:16;;;;;;;8.07;2.20;;;;;;;;;;5054405;28;20029;-33
2023/01/28 14:32:47;;;;;;;7.93;1.92;;;;;;;;;;5054539;28;20096;-33
2023/01/28 14:35:18;;;;;;;7.40;1.90;;;;;;;;;;5054300;28;20021;-33
2023/01/28 14:37:46;;;;;;;6.82;2.25;;;;;;;;;;5054305;28;20441;-33
2023/01/28 14:40:14;;;;;;;6.38;1.95;;;;;;;;;;5053951;28;20491;-32
2023/01/28 14:42:49;;;;;;;6.15;1.88;;;;;;;;;;5054612;28;20025;-33
2023/01/28 14:45:33;;;;;;;5.45;2.10;;;;;;;;;;5054217;28;20032;-33
2023/01/28 14:48:06;;;;;;;6.50;2.10;;;;;;;;;;5054110;28;20031;-33
2023/01/28 14:50:58;;;;;;;8.38;2.20;;;;;;;;;;5053971;28;20377;-32
2023/01/28 14:53:40;;;;;;;6.53;1.92;;;;;;;;;;5054075;28;20021;-32
2023/01/28 14:56:16;;;;;;;12.55;2.45;;;;;;;;;;5054123;28;20045;-33
2023/01/28 14:58:49;;;;;;;6.85;2.10;;;;;;;;;;5054048;28;20025;-32
2023/01/28 15:01:22;;;;;;;7.00;1.75;;;;;;;;;;5053861;28;20025;-32
2023/01/28 15:03:49;;;;;;;7.65;1.83;;;;;;;;;;5053719;28;20074;-32
2023/01/28 15:06:25;;;;;;;5.50;2.50;;;;;;;;;;5053832;28;20025;-32
2023/01/28 15:08:52;;;;;;;6.65;2.10;;;;;;;;;;5053642;28;20383;-32
2023/01/28 15:11:22;;;;;;;8.20;2.00;;;;;;;;;;5053632;28;20040;-32
2023/01/28 15:13:52;;;;;;;7.07;1.90;;;;;;;;;;5053633;28;20067;-33
2023/01/28 15:16:21;;;;;;;6.25;1.88;;;;;;;;;;5053054;28;20037;-32
2023/01/28 15:18:49;;;;;;;11.00;2.75;;;;;;;;;;5053554;28;20025;-33
2023/01/28 15:21:34;;;;;;;6.93;2.00;;;;;;;;;;5053287;28;20079;-32
2023/01/28 15:24:02;;;;;;;10.05;2.72;;;;;;;;;;5035484;28;20078;-33
2023/01/28 15:26:31;;;;;;;8.20;1.90;;;;;;;;;;5053322;28;20060;-32
2023/01/28 15:28:59;;;;;;;11.48;2.45;;;;;;;;;;5053273;28;20039;-33